createdAt,value
2023-04-24T00:02:16.658Z,11.20
2023-04-24T00:07:18.423Z,11.19
2023-04-24T00:12:20.067Z,11.20
2023-04-24T00:17:21.998Z,11.16
2023-04-24T00:22:23.780Z,11.15
2023-04-24T00:27:25.494Z,11.19
2023-04-24T00:32:27.179Z,11.18
2023-04-24T00:37:30.741Z,11.17
2023-04-24T00:42:32.451Z,11.12
2023-04-24T00:47:34.672Z,11.00
2023-04-24T00:52:37.024Z,10.94
2023-04-24T00:57:39.593Z,10.86
2023-04-24T01:02:46.189Z,10.81
2023-04-24T01:07:50.099Z,10.73
2023-04-24T01:12:52.811Z,10.66
2023-04-24T01:17:54.572Z,10.66
2023-04-24T01:22:57.551Z,10.64
2023-04-24T01:27:59.667Z,10.64
2023-04-24T01:33:01.637Z,10.65
2023-04-24T01:38:05.590Z,10.66
2023-04-24T01:43:07.739Z,10.69
2023-04-24T01:48:09.616Z,10.67
2023-04-24T01:53:11.360Z,10.67
2023-04-24T01:58:13.051Z,10.65
2023-04-24T02:03:14.905Z,10.72
2023-04-24T02:08:16.632Z,10.71
2023-04-24T02:13:18.313Z,10.63
2023-04-24T02:18:20.062Z,10.59
2023-04-24T02:23:21.730Z,10.54
2023-04-24T02:28:23.335Z,10.53
2023-04-24T02:33:25.844Z,10.49
2023-04-24T02:38:27.568Z,10.41
2023-04-24T02:43:29.302Z,10.34
2023-04-24T02:48:31.154Z,10.29
2023-04-24T02:53:32.970Z,10.23
2023-04-24T02:58:34.892Z,10.18
2023-04-24T03:03:37.365Z,10.12
2023-04-24T03:08:39.135Z,10.08
2023-04-24T03:13:40.781Z,10.07
2023-04-24T03:18:42.445Z,9.98
2023-04-24T03:23:45.075Z,9.94
2023-04-24T03:28:46.733Z,9.90
2023-04-24T03:33:48.457Z,9.95
2023-04-24T03:38:50.212Z,9.95
2023-04-24T03:43:59.192Z,9.89
2023-04-24T03:49:00.955Z,9.93
2023-04-24T03:54:07.312Z,9.94
2023-04-24T03:59:12.403Z,9.91
2023-04-24T04:04:15.823Z,9.78
2023-04-24T04:09:19.587Z,9.80
2023-04-24T04:14:21.260Z,9.84
2023-04-24T04:19:23.580Z,9.92
2023-04-24T04:24:27.596Z,9.99
2023-04-24T04:29:29.599Z,10.01
2023-04-24T04:34:32.430Z,10.01
2023-04-24T04:39:35.364Z,10.14
2023-04-24T04:44:43.845Z,10.23
2023-04-24T04:49:52.593Z,10.33
2023-04-24T04:54:57.793Z,10.39
2023-04-24T05:00:11.814Z,10.47
2023-04-24T05:05:21.966Z,10.61
2023-04-24T05:10:24.494Z,10.87
2023-04-24T05:15:32.416Z,10.98
2023-04-24T05:20:36.220Z,11.02
2023-04-24T05:25:39.773Z,10.99
2023-04-24T05:30:45.748Z,10.96
2023-04-24T05:35:52.135Z,10.98
2023-04-24T05:40:53.981Z,11.14
2023-04-24T05:45:56.350Z,11.40
2023-04-24T05:50:58.313Z,11.61
2023-04-24T05:56:00.847Z,11.75
2023-04-24T06:01:04.171Z,11.75
2023-04-24T06:06:07.526Z,11.72
2023-04-24T06:11:10.226Z,11.70
2023-04-24T06:16:13.174Z,11.74
2023-04-24T06:21:18.818Z,11.53
2023-04-24T06:26:20.918Z,11.51
2023-04-24T06:31:22.884Z,11.47
2023-04-24T06:36:24.598Z,11.59
2023-04-24T06:41:26.229Z,11.64
2023-04-24T06:46:28.936Z,11.80
2023-04-24T06:51:31.851Z,11.90
2023-04-24T06:56:35.417Z,11.73
2023-04-24T07:01:38.399Z,11.72
2023-04-24T07:06:43.549Z,11.80
2023-04-24T07:11:46.631Z,11.80
2023-04-24T07:16:50.200Z,11.75
2023-04-24T07:21:54.818Z,11.77
2023-04-24T07:26:58.197Z,11.92
2023-04-24T07:32:04.277Z,11.91
2023-04-24T07:37:06.405Z,12.13
2023-04-24T07:42:08.212Z,12.17
2023-04-24T07:47:09.937Z,12.37
2023-04-24T07:52:11.601Z,12.44
2023-04-24T07:57:13.265Z,12.68
2023-04-24T08:02:15.793Z,12.63
2023-04-24T08:07:18.043Z,12.93
2023-04-24T08:12:19.784Z,12.88
2023-04-24T08:17:21.504Z,12.95
2023-04-24T08:22:23.134Z,12.82
2023-04-24T08:27:25.013Z,12.90
2023-04-24T08:32:29.942Z,13.01
2023-04-24T08:37:31.875Z,12.95
2023-04-24T08:42:38.824Z,13.28
2023-04-24T08:47:43.172Z,13.60
2023-04-24T08:52:44.920Z,13.40
2023-04-24T08:57:50.879Z,13.39
2023-04-24T09:02:54.862Z,13.63
2023-04-24T09:07:57.960Z,13.46
2023-04-24T09:13:02.379Z,13.70
2023-04-24T09:18:05.493Z,13.42
2023-04-24T09:23:11.149Z,12.95
2023-04-24T09:28:12.815Z,12.83
2023-04-24T09:33:16.599Z,13.20
2023-04-24T09:38:18.796Z,13.56
2023-04-24T09:43:20.473Z,13.20
2023-04-24T09:48:31.006Z,13.48
2023-04-24T09:53:32.634Z,13.81
2023-04-24T09:58:37.962Z,14.52
2023-04-24T10:03:43.674Z,14.80
2023-04-24T10:08:47.309Z,14.36
2023-04-24T10:13:49.387Z,14.90
2023-04-24T10:18:51.268Z,14.85
2023-04-24T10:23:53.636Z,14.10
2023-04-24T10:28:55.389Z,14.12
2023-04-24T10:33:57.799Z,14.79
2023-04-24T10:39:02.216Z,15.03
2023-04-24T10:44:12.689Z,14.52
2023-04-24T10:49:14.354Z,14.04
2023-04-24T10:54:29.419Z,13.91
2023-04-24T10:59:36.208Z,13.80
2023-04-24T11:04:38.010Z,15.21
2023-04-24T11:09:42.551Z,15.34
2023-04-24T11:14:56.661Z,14.62
2023-04-24T11:20:25.814Z,15.00
2023-04-24T11:25:32.118Z,14.46
2023-04-24T11:30:34.864Z,14.73
2023-04-24T11:35:42.859Z,15.75
2023-04-24T11:40:45.454Z,17.54
2023-04-24T11:45:50.466Z,15.90
2023-04-24T11:50:52.177Z,17.16
2023-04-24T11:55:53.851Z,16.23
2023-04-24T12:01:02.328Z,15.55
2023-04-24T12:06:11.738Z,14.38
2023-04-24T12:11:16.681Z,14.75
2023-04-24T12:16:18.461Z,14.67
2023-04-24T12:21:26.067Z,15.32
2023-04-24T12:26:28.409Z,16.29
2023-04-24T12:31:31.299Z,16.78
2023-04-24T12:36:33.092Z,14.32
2023-04-24T12:41:34.782Z,14.24
2023-04-24T12:46:37.306Z,15.38
2023-04-24T12:51:39.406Z,17.40
2023-04-24T12:56:41.970Z,17.18
2023-04-24T13:01:43.761Z,15.41
2023-04-24T13:06:45.564Z,14.86
2023-04-24T13:11:47.267Z,14.65
2023-04-24T13:16:49.341Z,15.08
2023-04-24T13:21:53.773Z,17.97
2023-04-24T13:26:55.613Z,17.01
2023-04-24T13:31:59.003Z,14.96
2023-04-24T13:37:00.743Z,14.88
2023-04-24T13:42:04.649Z,16.30
2023-04-24T13:47:06.946Z,19.01
2023-04-24T13:52:08.693Z,17.82
2023-04-24T13:57:10.354Z,14.98
2023-04-24T14:02:12.287Z,15.70
2023-04-24T14:07:14.008Z,15.32
2023-04-24T14:12:17.620Z,15.15
2023-04-24T14:17:19.220Z,15.43
2023-04-24T14:22:21.241Z,15.11
2023-04-24T14:27:22.867Z,14.68
2023-04-24T14:32:24.718Z,14.32
2023-04-24T14:37:26.393Z,13.36
2023-04-24T14:42:29.750Z,12.83
2023-04-24T14:47:31.531Z,12.95
2023-04-24T14:52:33.184Z,13.38
2023-04-24T14:57:35.582Z,14.07
2023-04-24T15:02:40.917Z,13.87
2023-04-24T15:07:42.738Z,14.52
2023-04-24T15:12:44.856Z,14.64
2023-04-24T15:17:46.626Z,14.02
2023-04-24T15:22:48.318Z,13.81
2023-04-24T15:27:50.172Z,13.47
2023-04-24T15:32:51.997Z,13.26
2023-04-24T15:37:53.739Z,12.96
2023-04-24T15:42:55.516Z,12.52
2023-04-24T15:47:57.459Z,12.23
2023-04-24T15:52:59.154Z,11.89
2023-04-24T15:58:01.621Z,11.88
2023-04-24T16:03:03.445Z,12.23
2023-04-24T16:08:05.485Z,12.90
2023-04-24T16:13:07.415Z,13.22
2023-04-24T16:18:09.088Z,12.71
2023-04-24T16:23:11.013Z,12.04
2023-04-24T16:28:12.723Z,11.75
2023-04-24T16:33:14.730Z,11.02
2023-04-24T16:38:16.813Z,9.82
2023-04-24T16:43:18.759Z,9.70
2023-04-24T16:48:20.565Z,9.92
2023-04-24T16:53:22.161Z,10.23
2023-04-24T16:58:23.815Z,10.14
2023-04-24T17:03:25.909Z,10.14
2023-04-24T17:08:28.099Z,10.14
2023-04-24T17:13:29.921Z,10.19
2023-04-24T17:18:31.550Z,10.23
2023-04-24T17:23:33.203Z,10.25
2023-04-24T17:28:49.012Z,10.31
2023-04-24T17:34:17.666Z,10.28
2023-04-24T17:39:19.921Z,10.31
2023-04-24T17:44:21.731Z,10.26
2023-04-24T17:49:23.618Z,10.20
2023-04-24T17:54:27.823Z,10.17
2023-04-24T17:59:29.540Z,9.98
2023-04-24T18:04:31.369Z,9.86
2023-04-24T18:09:33.172Z,9.79
2023-04-24T18:14:34.809Z,9.70
2023-04-24T18:19:36.521Z,9.58
2023-04-24T18:24:38.839Z,9.10
2023-04-24T18:29:40.457Z,8.48
2023-04-24T18:34:42.478Z,8.18
2023-04-24T18:39:44.267Z,8.16
2023-04-24T18:44:46.242Z,8.41
2023-04-24T18:49:47.954Z,8.55
2023-04-24T18:54:49.738Z,8.70
2023-04-24T18:59:51.469Z,8.79
2023-04-24T19:04:53.182Z,8.86
2023-04-24T19:09:54.830Z,8.99
2023-04-24T19:14:57.947Z,9.03
2023-04-24T19:19:59.622Z,9.01
2023-04-24T19:25:01.804Z,8.90
2023-04-24T19:30:04.039Z,8.54
2023-04-24T19:35:06.044Z,8.39
2023-04-24T19:40:08.303Z,8.35
2023-04-24T19:45:11.741Z,8.64
2023-04-24T19:50:15.066Z,8.79
2023-04-24T19:55:16.863Z,8.83
2023-04-24T20:00:18.672Z,8.87
2023-04-24T20:05:20.652Z,8.83
2023-04-24T20:10:22.477Z,8.81
2023-04-24T20:15:24.109Z,8.77
2023-04-24T20:20:26.047Z,8.60
2023-04-24T20:25:27.725Z,8.48
2023-04-24T20:30:31.796Z,8.38
2023-04-24T20:41:41.467Z,8.30
2023-04-24T20:47:13.659Z,8.34
2023-04-24T20:52:17.717Z,8.28
2023-04-24T20:57:22.612Z,8.29
2023-04-24T21:08:05.498Z,8.24
2023-04-24T21:13:11.795Z,8.14
2023-04-24T21:25:03.151Z,7.95
2023-04-24T21:30:18.017Z,7.90
2023-04-24T21:35:25.069Z,7.83
2023-04-24T21:40:26.757Z,7.80
2023-04-24T21:45:30.635Z,7.70
2023-04-24T21:50:32.288Z,7.60
2023-04-24T21:55:34.177Z,7.48
2023-04-24T22:00:36.711Z,7.46
2023-04-24T22:05:38.388Z,7.41
2023-04-24T22:10:40.011Z,7.35
2023-04-24T22:15:41.701Z,7.31
2023-04-24T22:20:44.602Z,7.27
2023-04-24T22:25:46.285Z,7.25
2023-04-24T22:30:47.977Z,7.22
2023-04-24T22:35:49.660Z,7.22
2023-04-24T22:40:51.357Z,7.19
2023-04-24T22:45:53.016Z,7.10
2023-04-24T22:50:54.719Z,7.00
2023-04-24T22:55:57.085Z,6.77
2023-04-24T23:00:58.910Z,6.63
2023-04-24T23:06:00.637Z,6.51
2023-04-24T23:11:02.448Z,6.35
2023-04-24T23:16:05.259Z,6.21
2023-04-24T23:21:07.140Z,6.02
2023-04-24T23:26:08.770Z,5.77
2023-04-24T23:31:10.446Z,5.57
2023-04-24T23:36:13.174Z,5.24
2023-04-24T23:41:14.866Z,4.87
2023-04-24T23:46:16.645Z,4.59
2023-04-24T23:51:19.102Z,4.39
2023-04-24T23:56:24.262Z,4.25
